Flugplatz Fulda-Jossa (EDGF)

Hier findest Du alle Informationen zum Flugplatz Fulda-Jossa (EDGF).

Informationen für Piloten zum Flugplatz Fulda-Jossa

Hier findest Du alle relevanten Informationen, die Du als Pilot benötigst, um Fulda-Jossa anzufliegen.

Flugplatz: Fulda-Jossa ICAO-Code: EDGF
Frequenz Turm: 122,400 Mhz GAFOR Gebiet: 43
Frequenz Ground: 122,400 Mhz Mogas: nein
Platzrunde: S 2500 ft Landegebühr: -
Platzhöhe: - Sunrise: 03:15 Uhr UTC
Pisten: 08/26 - 588 m x 30 m, GRAS Sunset: 19:38 Uhr UTC

Mitglieder, die in Fulda-Jossa fliegen

Flugwetter am Flugplatz Fulda-Jossa

Die METAR Information stammen aus EDDF (79.08 km entfernt).

METAR Code:
2022/06/18 14:50
EDDF 181450Z 22010KT 180V260 CAVOK 36/10 Q1015 NOSIG

Flugschulen am Flugplatz Fulda-Jossa

Am Flugplatz Fulda-Jossa gibt es leider keine Flugschule.

Benachbarte Flugplätze und Flugschulen

Es gibt 12 weitere Flugplätze in einem Umkreis von 50 km um den Flugplatz Fulda-Jossa.

Jetzt anmelden

Passwort vergessen

Umfrage Archiv

Sendet Ihr ADS-B und/oder FLARM?

Ja
83.3 %
Nein
16.7 %
Stimmen: 180 | Diskussion
Anzeige: Roland Aircraft
Statistik Alle Mitglieder

Aktuell sind 54 Besucher online, davon 5 Mitglieder und 49 Gäste.


Mitglieder online:
JPM  Quantil  Nordex  Onkel Tom  hennes 

Anzeige: ULPower Aero Engines Anzeige: Pocket FMS